sensor_id;sensor_type;location;lat;lon;timestamp;temperature;humidity
12726;DHT22;6427;49.754;6.106;2023-01-30T00:00:40;2.50;99.90
12726;DHT22;6427;49.754;6.106;2023-01-30T00:03:08;2.30;99.90
12726;DHT22;6427;49.754;6.106;2023-01-30T00:05:36;2.30;99.90
12726;DHT22;6427;49.754;6.106;2023-01-30T00:08:03;2.30;99.90
12726;DHT22;6427;49.754;6.106;2023-01-30T00:10:31;2.50;99.90
12726;DHT22;6427;49.754;6.106;2023-01-30T00:12:58;2.40;99.90
12726;DHT22;6427;49.754;6.106;2023-01-30T00:15:27;2.30;99.90
12726;DHT22;6427;49.754;6.106;2023-01-30T00:17:54;2.30;99.90
12726;DHT22;6427;49.754;6.106;2023-01-30T00:20:22;2.30;99.90
12726;DHT22;6427;49.754;6.106;2023-01-30T00:22:49;2.20;99.90
12726;DHT22;6427;49.754;6.106;2023-01-30T00:25:18;2.20;99.90
12726;DHT22;6427;49.754;6.106;2023-01-30T00:27:45;2.20;99.90
12726;DHT22;6427;49.754;6.106;2023-01-30T00:30:13;2.20;99.90
12726;DHT22;6427;49.754;6.106;2023-01-30T00:32:40;2.40;99.90
12726;DHT22;6427;49.754;6.106;2023-01-30T00:35:08;2.40;99.90
12726;DHT22;6427;49.754;6.106;2023-01-30T00:37:35;2.60;99.90
12726;DHT22;6427;49.754;6.106;2023-01-30T00:40:03;2.60;99.90
12726;DHT22;6427;49.754;6.106;2023-01-30T00:42:31;2.60;99.90
12726;DHT22;6427;49.754;6.106;2023-01-30T00:45:17;2.80;99.90
12726;DHT22;6427;49.754;6.106;2023-01-30T00:48:02;2.70;99.90
12726;DHT22;6427;49.754;6.106;2023-01-30T00:50:30;2.60;99.90
12726;DHT22;6427;49.754;6.106;2023-01-30T00:52:58;2.50;99.90
12726;DHT22;6427;49.754;6.106;2023-01-30T00:55:26;2.50;99.90
12726;DHT22;6427;49.754;6.106;2023-01-30T00:57:54;2.50;99.90
12726;DHT22;6427;49.754;6.106;2023-01-30T01:00:21;2.40;99.90
12726;DHT22;6427;49.754;6.106;2023-01-30T01:02:49;2.40;99.90
12726;DHT22;6427;49.754;6.106;2023-01-30T01:05:17;2.30;99.90
12726;DHT22;6427;49.754;6.106;2023-01-30T01:07:44;2.50;99.90
12726;DHT22;6427;49.754;6.106;2023-01-30T01:10:12;2.50;99.90
12726;DHT22;6427;49.754;6.106;2023-01-30T01:12:40;2.40;99.90
12726;DHT22;6427;49.754;6.106;2023-01-30T01:15:08;2.40;99.90
12726;DHT22;6427;49.754;6.106;2023-01-30T01:17:35;2.40;99.90
12726;DHT22;6427;49.754;6.106;2023-01-30T01:20:03;2.30;99.90
12726;DHT22;6427;49.754;6.106;2023-01-30T01:22:31;2.30;99.90
12726;DHT22;6427;49.754;6.106;2023-01-30T01:24:59;2.30;99.90
12726;DHT22;6427;49.754;6.106;2023-01-30T01:27:27;2.30;99.90
12726;DHT22;6427;49.754;6.106;2023-01-30T01:29:54;2.50;99.90
12726;DHT22;6427;49.754;6.106;2023-01-30T01:32:21;2.50;99.90
12726;DHT22;6427;49.754;6.106;2023-01-30T01:34:50;2.40;99.90
12726;DHT22;6427;49.754;6.106;2023-01-30T01:37:17;2.40;99.90
12726;DHT22;6427;49.754;6.106;2023-01-30T01:39:45;2.40;99.90
12726;DHT22;6427;49.754;6.106;2023-01-30T01:42:34;2.40;99.90
12726;DHT22;6427;49.754;6.106;2023-01-30T01:47:46;2.30;99.90
12726;DHT22;6427;49.754;6.106;2023-01-30T01:50:20;2.30;99.90
12726;DHT22;6427;49.754;6.106;2023-01-30T01:52:41;2.30;99.90
12726;DHT22;6427;49.754;6.106;2023-01-30T01:55:09;2.30;99.90
12726;DHT22;6427;49.754;6.106;2023-01-30T01:57:38;2.30;99.90
12726;DHT22;6427;49.754;6.106;2023-01-30T02:00:11;2.30;99.90
12726;DHT22;6427;49.754;6.106;2023-01-30T02:02:51;2.30;99.90
12726;DHT22;6427;49.754;6.106;2023-01-30T02:05:18;2.30;99.90
12726;DHT22;6427;49.754;6.106;2023-01-30T02:07:58;2.30;99.90
12726;DHT22;6427;49.754;6.106;2023-01-30T02:10:22;2.30;99.90
12726;DHT22;6427;49.754;6.106;2023-01-30T02:12:49;2.30;99.90
12726;DHT22;6427;49.754;6.106;2023-01-30T02:15:17;2.30;99.90
12726;DHT22;6427;49.754;6.106;2023-01-30T02:17:44;2.30;99.90
12726;DHT22;6427;49.754;6.106;2023-01-30T02:20:37;2.40;99.90
12726;DHT22;6427;49.754;6.106;2023-01-30T02:23:03;2.40;99.90
12726;DHT22;6427;49.754;6.106;2023-01-30T02:28:38;2.40;99.90
12726;DHT22;6427;49.754;6.106;2023-01-30T02:44:54;2.70;99.90
12726;DHT22;6427;49.754;6.106;2023-01-30T02:47:43;2.60;99.90
12726;DHT22;6427;49.754;6.106;2023-01-30T02:50:11;2.60;99.90
12726;DHT22;6427;49.754;6.106;2023-01-30T02:52:37;2.50;99.90
12726;DHT22;6427;49.754;6.106;2023-01-30T02:55:17;2.50;99.90
12726;DHT22;6427;49.754;6.106;2023-01-30T02:57:44;3.00;99.90
12726;DHT22;6427;49.754;6.106;2023-01-30T03:00:12;2.90;99.90
12726;DHT22;6427;49.754;6.106;2023-01-30T03:05:51;2.80;99.90
12726;DHT22;6427;49.754;6.106;2023-01-30T03:08:27;2.80;99.90
12726;DHT22;6427;49.754;6.106;2023-01-30T03:11:02;2.80;99.90
12726;DHT22;6427;49.754;6.106;2023-01-30T03:13:33;2.80;99.90
12726;DHT22;6427;49.754;6.106;2023-01-30T03:16:05;2.70;99.90
12726;DHT22;6427;49.754;6.106;2023-01-30T03:18:27;2.70;99.90
12726;DHT22;6427;49.754;6.106;2023-01-30T03:20:54;2.70;99.90
12726;DHT22;6427;49.754;6.106;2023-01-30T03:23:22;2.60;99.90
12726;DHT22;6427;49.754;6.106;2023-01-30T03:25:51;2.60;99.90
12726;DHT22;6427;49.754;6.106;2023-01-30T03:28:18;2.60;99.90
12726;DHT22;6427;49.754;6.106;2023-01-30T03:30:47;2.50;99.90
12726;DHT22;6427;49.754;6.106;2023-01-30T03:33:14;2.60;99.90
12726;DHT22;6427;49.754;6.106;2023-01-30T03:35:42;2.50;99.90
12726;DHT22;6427;49.754;6.106;2023-01-30T03:38:10;2.50;99.90
12726;DHT22;6427;49.754;6.106;2023-01-30T03:40:37;2.60;99.90
12726;DHT22;6427;49.754;6.106;2023-01-30T03:43:05;2.70;99.90
12726;DHT22;6427;49.754;6.106;2023-01-30T03:45:33;2.80;99.90
12726;DHT22;6427;49.754;6.106;2023-01-30T03:48:00;2.70;99.90
12726;DHT22;6427;49.754;6.106;2023-01-30T03:50:28;2.70;99.90
12726;DHT22;6427;49.754;6.106;2023-01-30T03:52:55;2.70;99.90
12726;DHT22;6427;49.754;6.106;2023-01-30T03:55:23;2.60;99.90
12726;DHT22;6427;49.754;6.106;2023-01-30T03:57:55;2.80;99.90
12726;DHT22;6427;49.754;6.106;2023-01-30T04:00:18;3.10;99.90
12726;DHT22;6427;49.754;6.106;2023-01-30T04:02:46;3.10;99.90
12726;DHT22;6427;49.754;6.106;2023-01-30T04:05:13;3.00;99.90
12726;DHT22;6427;49.754;6.106;2023-01-30T04:07:41;2.90;99.90
12726;DHT22;6427;49.754;6.106;2023-01-30T04:10:09;2.80;99.90
12726;DHT22;6427;49.754;6.106;2023-01-30T04:12:37;2.80;99.90
12726;DHT22;6427;49.754;6.106;2023-01-30T04:15:05;2.80;99.90
12726;DHT22;6427;49.754;6.106;2023-01-30T04:17:32;3.00;99.90
12726;DHT22;6427;49.754;6.106;2023-01-30T04:20:00;2.90;99.90
12726;DHT22;6427;49.754;6.106;2023-01-30T04:22:27;2.90;99.90
12726;DHT22;6427;49.754;6.106;2023-01-30T04:24:55;2.90;99.90
12726;DHT22;6427;49.754;6.106;2023-01-30T04:27:22;2.80;99.90
12726;DHT22;6427;49.754;6.106;2023-01-30T04:29:50;2.80;99.90
12726;DHT22;6427;49.754;6.106;2023-01-30T04:32:18;2.80;99.90
12726;DHT22;6427;49.754;6.106;2023-01-30T04:34:46;2.80;99.90
12726;DHT22;6427;49.754;6.106;2023-01-30T04:37:14;2.80;99.90
12726;DHT22;6427;49.754;6.106;2023-01-30T04:39:41;2.80;99.90
12726;DHT22;6427;49.754;6.106;2023-01-30T04:42:09;2.80;99.90
12726;DHT22;6427;49.754;6.106;2023-01-30T04:44:36;2.80;99.90
12726;DHT22;6427;49.754;6.106;2023-01-30T04:47:04;2.80;99.90
12726;DHT22;6427;49.754;6.106;2023-01-30T04:49:31;2.80;99.90
12726;DHT22;6427;49.754;6.106;2023-01-30T04:51:59;2.80;99.90
12726;DHT22;6427;49.754;6.106;2023-01-30T04:54:26;2.80;99.90
12726;DHT22;6427;49.754;6.106;2023-01-30T04:56:54;2.80;99.90
12726;DHT22;6427;49.754;6.106;2023-01-30T04:59:22;2.80;99.90
12726;DHT22;6427;49.754;6.106;2023-01-30T05:01:49;3.00;99.90
12726;DHT22;6427;49.754;6.106;2023-01-30T05:04:17;3.30;99.90
12726;DHT22;6427;49.754;6.106;2023-01-30T05:06:44;3.30;99.90
12726;DHT22;6427;49.754;6.106;2023-01-30T05:09:12;3.20;99.90
12726;DHT22;6427;49.754;6.106;2023-01-30T05:11:39;3.20;99.90
12726;DHT22;6427;49.754;6.106;2023-01-30T05:14:07;3.20;99.90
12726;DHT22;6427;49.754;6.106;2023-01-30T05:16:34;3.10;99.90
12726;DHT22;6427;49.754;6.106;2023-01-30T05:19:02;3.00;99.90
12726;DHT22;6427;49.754;6.106;2023-01-30T05:21:29;3.00;99.90
12726;DHT22;6427;49.754;6.106;2023-01-30T05:23:57;3.20;99.90
12726;DHT22;6427;49.754;6.106;2023-01-30T05:26:25;3.10;99.90
12726;DHT22;6427;49.754;6.106;2023-01-30T05:28:54;3.10;99.90
12726;DHT22;6427;49.754;6.106;2023-01-30T05:31:20;3.10;99.90
12726;DHT22;6427;49.754;6.106;2023-01-30T05:33:48;3.00;99.90
12726;DHT22;6427;49.754;6.106;2023-01-30T05:36:16;3.00;99.90
12726;DHT22;6427;49.754;6.106;2023-01-30T05:38:44;3.00;99.90
12726;DHT22;6427;49.754;6.106;2023-01-30T05:41:12;2.90;99.90
12726;DHT22;6427;49.754;6.106;2023-01-30T05:43:40;3.00;99.90
12726;DHT22;6427;49.754;6.106;2023-01-30T05:46:08;3.00;99.90
12726;DHT22;6427;49.754;6.106;2023-01-30T05:48:35;3.00;99.90
12726;DHT22;6427;49.754;6.106;2023-01-30T05:51:03;3.00;99.90
12726;DHT22;6427;49.754;6.106;2023-01-30T05:53:31;3.00;99.90
12726;DHT22;6427;49.754;6.106;2023-01-30T05:55:59;3.00;99.90
12726;DHT22;6427;49.754;6.106;2023-01-30T05:58:26;3.00;99.90
12726;DHT22;6427;49.754;6.106;2023-01-30T06:00:58;3.00;99.90
12726;DHT22;6427;49.754;6.106;2023-01-30T06:03:22;3.00;99.90
12726;DHT22;6427;49.754;6.106;2023-01-30T06:05:49;3.00;99.90
12726;DHT22;6427;49.754;6.106;2023-01-30T06:08:17;3.10;99.90
12726;DHT22;6427;49.754;6.106;2023-01-30T06:10:45;3.10;99.90
12726;DHT22;6427;49.754;6.106;2023-01-30T06:13:13;3.10;99.90
12726;DHT22;6427;49.754;6.106;2023-01-30T06:15:41;3.10;99.90
12726;DHT22;6427;49.754;6.106;2023-01-30T06:18:08;3.10;99.90
12726;DHT22;6427;49.754;6.106;2023-01-30T06:20:36;3.20;99.90
12726;DHT22;6427;49.754;6.106;2023-01-30T06:23:04;3.20;99.90
12726;DHT22;6427;49.754;6.106;2023-01-30T06:25:32;3.20;99.90
12726;DHT22;6427;49.754;6.106;2023-01-30T06:27:59;3.20;99.90
12726;DHT22;6427;49.754;6.106;2023-01-30T06:30:27;3.30;99.90
12726;DHT22;6427;49.754;6.106;2023-01-30T06:32:55;3.30;99.90
12726;DHT22;6427;49.754;6.106;2023-01-30T06:35:23;3.30;99.90
12726;DHT22;6427;49.754;6.106;2023-01-30T06:37:50;3.30;99.90
12726;DHT22;6427;49.754;6.106;2023-01-30T06:40:18;3.30;99.90
12726;DHT22;6427;49.754;6.106;2023-01-30T06:42:46;3.30;99.90
12726;DHT22;6427;49.754;6.106;2023-01-30T06:45:16;3.30;99.90
12726;DHT22;6427;49.754;6.106;2023-01-30T06:47:47;3.40;99.90
12726;DHT22;6427;49.754;6.106;2023-01-30T06:50:15;3.30;99.90
12726;DHT22;6427;49.754;6.106;2023-01-30T06:52:46;3.30;99.90
12726;DHT22;6427;49.754;6.106;2023-01-30T06:55:16;3.30;99.90
12726;DHT22;6427;49.754;6.106;2023-01-30T06:57:41;3.40;99.90
12726;DHT22;6427;49.754;6.106;2023-01-30T07:00:16;3.40;99.90
12726;DHT22;6427;49.754;6.106;2023-01-30T07:02:39;3.40;99.90
12726;DHT22;6427;49.754;6.106;2023-01-30T07:05:07;3.40;99.90
12726;DHT22;6427;49.754;6.106;2023-01-30T07:07:36;3.40;99.90
12726;DHT22;6427;49.754;6.106;2023-01-30T07:10:04;3.40;99.90
12726;DHT22;6427;49.754;6.106;2023-01-30T07:12:31;3.40;99.90
12726;DHT22;6427;49.754;6.106;2023-01-30T07:14:58;3.40;99.90
12726;DHT22;6427;49.754;6.106;2023-01-30T07:17:26;3.40;99.90
12726;DHT22;6427;49.754;6.106;2023-01-30T07:19:54;3.70;99.90
12726;DHT22;6427;49.754;6.106;2023-01-30T07:22:22;3.60;99.90
12726;DHT22;6427;49.754;6.106;2023-01-30T07:24:50;3.70;99.90
12726;DHT22;6427;49.754;6.106;2023-01-30T07:27:17;3.70;99.90
12726;DHT22;6427;49.754;6.106;2023-01-30T07:29:45;3.60;99.90
12726;DHT22;6427;49.754;6.106;2023-01-30T07:32:16;3.60;99.90
12726;DHT22;6427;49.754;6.106;2023-01-30T07:34:41;3.60;99.90
12726;DHT22;6427;49.754;6.106;2023-01-30T07:37:08;3.60;99.90
12726;DHT22;6427;49.754;6.106;2023-01-30T07:39:36;3.60;99.90
12726;DHT22;6427;49.754;6.106;2023-01-30T07:42:04;3.70;99.90
12726;DHT22;6427;49.754;6.106;2023-01-30T07:44:31;3.70;99.90
12726;DHT22;6427;49.754;6.106;2023-01-30T07:46:59;3.70;99.90
12726;DHT22;6427;49.754;6.106;2023-01-30T07:49:27;3.70;99.90
12726;DHT22;6427;49.754;6.106;2023-01-30T07:51:56;3.70;99.90
12726;DHT22;6427;49.754;6.106;2023-01-30T07:54:23;3.70;99.90
12726;DHT22;6427;49.754;6.106;2023-01-30T07:56:51;3.70;99.90
12726;DHT22;6427;49.754;6.106;2023-01-30T07:59:18;3.70;99.90
12726;DHT22;6427;49.754;6.106;2023-01-30T08:01:46;3.80;99.90
12726;DHT22;6427;49.754;6.106;2023-01-30T08:04:14;3.80;99.90
12726;DHT22;6427;49.754;6.106;2023-01-30T08:06:42;3.80;99.90
12726;DHT22;6427;49.754;6.106;2023-01-30T08:09:09;4.00;99.90
12726;DHT22;6427;49.754;6.106;2023-01-30T08:11:37;4.10;99.90
12726;DHT22;6427;49.754;6.106;2023-01-30T08:14:04;4.10;99.90
12726;DHT22;6427;49.754;6.106;2023-01-30T08:16:32;4.10;99.90
12726;DHT22;6427;49.754;6.106;2023-01-30T08:18:59;4.10;99.90
12726;DHT22;6427;49.754;6.106;2023-01-30T08:21:28;4.00;99.90
12726;DHT22;6427;49.754;6.106;2023-01-30T08:23:55;4.00;99.90
12726;DHT22;6427;49.754;6.106;2023-01-30T08:26:23;4.00;99.90
12726;DHT22;6427;49.754;6.106;2023-01-30T08:28:51;4.00;99.90
12726;DHT22;6427;49.754;6.106;2023-01-30T08:31:20;4.00;99.90
12726;DHT22;6427;49.754;6.106;2023-01-30T08:33:47;4.00;99.90
12726;DHT22;6427;49.754;6.106;2023-01-30T08:36:15;4.00;99.90
12726;DHT22;6427;49.754;6.106;2023-01-30T08:38:42;4.00;99.90
12726;DHT22;6427;49.754;6.106;2023-01-30T08:41:11;4.00;99.90
12726;DHT22;6427;49.754;6.106;2023-01-30T08:43:39;4.10;99.90
12726;DHT22;6427;49.754;6.106;2023-01-30T08:46:07;4.10;99.90
12726;DHT22;6427;49.754;6.106;2023-01-30T08:48:35;4.10;99.90
12726;DHT22;6427;49.754;6.106;2023-01-30T08:51:02;4.10;99.90
12726;DHT22;6427;49.754;6.106;2023-01-30T08:53:30;4.10;99.90
12726;DHT22;6427;49.754;6.106;2023-01-30T08:55:57;4.10;99.90
12726;DHT22;6427;49.754;6.106;2023-01-30T08:58:25;4.10;99.90
12726;DHT22;6427;49.754;6.106;2023-01-30T09:00:53;4.30;99.90
12726;DHT22;6427;49.754;6.106;2023-01-30T09:03:21;4.30;99.90
12726;DHT22;6427;49.754;6.106;2023-01-30T09:05:54;4.30;99.90
12726;DHT22;6427;49.754;6.106;2023-01-30T09:08:22;4.30;99.90
12726;DHT22;6427;49.754;6.106;2023-01-30T09:10:49;4.30;99.90
12726;DHT22;6427;49.754;6.106;2023-01-30T09:13:17;4.40;99.90
12726;DHT22;6427;49.754;6.106;2023-01-30T09:15:44;4.50;99.90
12726;DHT22;6427;49.754;6.106;2023-01-30T09:18:12;4.50;99.90
12726;DHT22;6427;49.754;6.106;2023-01-30T09:20:39;4.40;99.90
12726;DHT22;6427;49.754;6.106;2023-01-30T09:23:07;4.40;99.90
12726;DHT22;6427;49.754;6.106;2023-01-30T09:25:35;4.40;99.90
12726;DHT22;6427;49.754;6.106;2023-01-30T09:28:03;4.40;99.90
12726;DHT22;6427;49.754;6.106;2023-01-30T09:30:30;4.40;99.90
12726;DHT22;6427;49.754;6.106;2023-01-30T09:32:59;4.40;99.90
12726;DHT22;6427;49.754;6.106;2023-01-30T09:35:26;4.40;99.90
12726;DHT22;6427;49.754;6.106;2023-01-30T09:37:54;4.40;99.90
12726;DHT22;6427;49.754;6.106;2023-01-30T09:40:30;4.40;99.90
12726;DHT22;6427;49.754;6.106;2023-01-30T09:43:23;4.40;99.90
12726;DHT22;6427;49.754;6.106;2023-01-30T09:48:46;4.40;99.90
12726;DHT22;6427;49.754;6.106;2023-01-30T09:51:19;4.40;99.90
12726;DHT22;6427;49.754;6.106;2023-01-30T09:54:41;4.40;99.90
12726;DHT22;6427;49.754;6.106;2023-01-30T09:56:22;4.40;99.90
12726;DHT22;6427;49.754;6.106;2023-01-30T09:58:56;4.50;99.90
12726;DHT22;6427;49.754;6.106;2023-01-30T10:01:35;4.50;99.90
12726;DHT22;6427;49.754;6.106;2023-01-30T10:04:17;4.50;99.90
12726;DHT22;6427;49.754;6.106;2023-01-30T10:06:45;4.50;99.90
12726;DHT22;6427;49.754;6.106;2023-01-30T10:09:14;4.70;99.90
12726;DHT22;6427;49.754;6.106;2023-01-30T10:12:06;4.70;99.90
12726;DHT22;6427;49.754;6.106;2023-01-30T10:14:46;4.80;99.90
12726;DHT22;6427;49.754;6.106;2023-01-30T10:17:31;4.70;99.90
12726;DHT22;6427;49.754;6.106;2023-01-30T10:22:59;4.70;99.90
12726;DHT22;6427;49.754;6.106;2023-01-30T10:28:17;4.70;99.90
12726;DHT22;6427;49.754;6.106;2023-01-30T10:30:44;5.00;99.90
12726;DHT22;6427;49.754;6.106;2023-01-30T10:33:21;5.00;99.90
12726;DHT22;6427;49.754;6.106;2023-01-30T10:35:51;5.00;99.90
12726;DHT22;6427;49.754;6.106;2023-01-30T10:38:17;5.00;99.90
12726;DHT22;6427;49.754;6.106;2023-01-30T10:41:48;5.00;99.90
12726;DHT22;6427;49.754;6.106;2023-01-30T10:43:44;5.00;99.90
12726;DHT22;6427;49.754;6.106;2023-01-30T10:46:13;5.00;99.90
12726;DHT22;6427;49.754;6.106;2023-01-30T10:51:32;5.10;99.90
12726;DHT22;6427;49.754;6.106;2023-01-30T10:54:04;5.30;99.90
12726;DHT22;6427;49.754;6.106;2023-01-30T10:59:33;5.20;99.90
12726;DHT22;6427;49.754;6.106;2023-01-30T11:02:09;5.30;99.90
12726;DHT22;6427;49.754;6.106;2023-01-30T11:04:38;5.20;99.90
12726;DHT22;6427;49.754;6.106;2023-01-30T11:07:03;5.20;99.90
12726;DHT22;6427;49.754;6.106;2023-01-30T11:09:38;5.20;99.90
12726;DHT22;6427;49.754;6.106;2023-01-30T11:12:05;5.10;99.90
12726;DHT22;6427;49.754;6.106;2023-01-30T11:14:52;5.20;99.90
12726;DHT22;6427;49.754;6.106;2023-01-30T11:17:19;5.20;99.90
12726;DHT22;6427;49.754;6.106;2023-01-30T11:19:53;5.20;99.90
12726;DHT22;6427;49.754;6.106;2023-01-30T11:22:14;5.20;99.90
12726;DHT22;6427;49.754;6.106;2023-01-30T11:24:43;5.30;99.90
12726;DHT22;6427;49.754;6.106;2023-01-30T11:27:16;5.30;99.90
12726;DHT22;6427;49.754;6.106;2023-01-30T11:29:43;5.50;99.90
12726;DHT22;6427;49.754;6.106;2023-01-30T11:32:26;5.60;99.90
12726;DHT22;6427;49.754;6.106;2023-01-30T11:35:03;5.60;99.90
12726;DHT22;6427;49.754;6.106;2023-01-30T11:37:33;5.60;99.90
12726;DHT22;6427;49.754;6.106;2023-01-30T11:40:06;5.60;99.90
12726;DHT22;6427;49.754;6.106;2023-01-30T11:42:30;5.70;99.90
12726;DHT22;6427;49.754;6.106;2023-01-30T11:44:58;5.70;99.90
12726;DHT22;6427;49.754;6.106;2023-01-30T11:47:26;6.00;99.90
12726;DHT22;6427;49.754;6.106;2023-01-30T11:49:57;6.00;99.90
12726;DHT22;6427;49.754;6.106;2023-01-30T11:52:25;6.10;99.90
12726;DHT22;6427;49.754;6.106;2023-01-30T11:54:52;6.00;99.90
12726;DHT22;6427;49.754;6.106;2023-01-30T11:57:19;6.00;99.90
12726;DHT22;6427;49.754;6.106;2023-01-30T11:59:54;6.00;99.90
12726;DHT22;6427;49.754;6.106;2023-01-30T12:02:28;6.00;99.90
12726;DHT22;6427;49.754;6.106;2023-01-30T12:04:51;6.20;99.90
12726;DHT22;6427;49.754;6.106;2023-01-30T12:07:22;6.30;99.90
12726;DHT22;6427;49.754;6.106;2023-01-30T12:09:48;6.30;99.90
12726;DHT22;6427;49.754;6.106;2023-01-30T12:12:36;6.30;99.90
12726;DHT22;6427;49.754;6.106;2023-01-30T12:15:17;6.30;99.90
12726;DHT22;6427;49.754;6.106;2023-01-30T12:18:05;6.40;99.90
12726;DHT22;6427;49.754;6.106;2023-01-30T12:20:45;6.60;99.90
12726;DHT22;6427;49.754;6.106;2023-01-30T12:26:30;6.70;99.90
12726;DHT22;6427;49.754;6.106;2023-01-30T12:34:18;7.30;99.90
12726;DHT22;6427;49.754;6.106;2023-01-30T12:37:20;7.30;99.90
12726;DHT22;6427;49.754;6.106;2023-01-30T12:39:48;7.40;99.90
12726;DHT22;6427;49.754;6.106;2023-01-30T12:45:18;7.50;99.90
12726;DHT22;6427;49.754;6.106;2023-01-30T12:48:07;7.60;99.90
12726;DHT22;6427;49.754;6.106;2023-01-30T12:50:45;7.70;99.90
12726;DHT22;6427;49.754;6.106;2023-01-30T12:53:11;7.80;99.90
12726;DHT22;6427;49.754;6.106;2023-01-30T12:55:51;8.10;99.90
12726;DHT22;6427;49.754;6.106;2023-01-30T13:01:00;8.10;99.90
12726;DHT22;6427;49.754;6.106;2023-01-30T13:11:40;8.60;99.90
12726;DHT22;6427;49.754;6.106;2023-01-30T13:14:16;8.60;99.90
12726;DHT22;6427;49.754;6.106;2023-01-30T13:19:30;8.80;99.90
12726;DHT22;6427;49.754;6.106;2023-01-30T13:25:07;8.70;99.90
12726;DHT22;6427;49.754;6.106;2023-01-30T13:27:32;8.80;99.90
12726;DHT22;6427;49.754;6.106;2023-01-30T13:29:58;8.80;99.90
12726;DHT22;6427;49.754;6.106;2023-01-30T13:32:45;8.70;99.90
12726;DHT22;6427;49.754;6.106;2023-01-30T13:35:21;8.70;99.90
12726;DHT22;6427;49.754;6.106;2023-01-30T13:37:47;8.70;99.90
12726;DHT22;6427;49.754;6.106;2023-01-30T13:40:18;8.70;99.90
12726;DHT22;6427;49.754;6.106;2023-01-30T13:42:47;8.60;99.90
12726;DHT22;6427;49.754;6.106;2023-01-30T13:45:16;8.60;99.90
12726;DHT22;6427;49.754;6.106;2023-01-30T13:50:44;8.50;99.90
12726;DHT22;6427;49.754;6.106;2023-01-30T13:53:14;8.60;99.90
12726;DHT22;6427;49.754;6.106;2023-01-30T13:56:01;8.60;99.90
12726;DHT22;6427;49.754;6.106;2023-01-30T14:01:07;8.50;99.90
12726;DHT22;6427;49.754;6.106;2023-01-30T14:03:36;8.50;99.90
12726;DHT22;6427;49.754;6.106;2023-01-30T14:06:05;8.50;99.90
12726;DHT22;6427;49.754;6.106;2023-01-30T14:08:39;8.50;99.90
12726;DHT22;6427;49.754;6.106;2023-01-30T14:11:23;8.50;99.90
12726;DHT22;6427;49.754;6.106;2023-01-30T14:13:33;8.60;99.90
12726;DHT22;6427;49.754;6.106;2023-01-30T14:16:04;8.60;99.90
12726;DHT22;6427;49.754;6.106;2023-01-30T14:18:32;8.60;99.90
12726;DHT22;6427;49.754;6.106;2023-01-30T14:21:17;8.80;99.90
12726;DHT22;6427;49.754;6.106;2023-01-30T14:23:54;8.80;99.90
12726;DHT22;6427;49.754;6.106;2023-01-30T14:34:40;8.70;99.90
12726;DHT22;6427;49.754;6.106;2023-01-30T14:37:25;8.70;99.90
12726;DHT22;6427;49.754;6.106;2023-01-30T14:39:53;8.60;99.90
12726;DHT22;6427;49.754;6.106;2023-01-30T14:42:24;8.50;99.90
12726;DHT22;6427;49.754;6.106;2023-01-30T14:45:04;8.40;99.90
12726;DHT22;6427;49.754;6.106;2023-01-30T14:47:31;8.40;99.90
12726;DHT22;6427;49.754;6.106;2023-01-30T14:49:58;8.50;99.90
12726;DHT22;6427;49.754;6.106;2023-01-30T14:52:40;8.60;99.90
12726;DHT22;6427;49.754;6.106;2023-01-30T14:55:21;8.70;99.90
12726;DHT22;6427;49.754;6.106;2023-01-30T14:57:54;8.70;99.90
12726;DHT22;6427;49.754;6.106;2023-01-30T15:00:30;8.60;99.90
12726;DHT22;6427;49.754;6.106;2023-01-30T15:02:58;8.60;99.90
12726;DHT22;6427;49.754;6.106;2023-01-30T15:05:36;8.50;99.90
12726;DHT22;6427;49.754;6.106;2023-01-30T15:08:10;8.50;99.90
12726;DHT22;6427;49.754;6.106;2023-01-30T15:13:52;8.40;99.90
12726;DHT22;6427;49.754;6.106;2023-01-30T15:16:27;8.40;99.90
12726;DHT22;6427;49.754;6.106;2023-01-30T15:27:32;8.30;99.90
12726;DHT22;6427;49.754;6.106;2023-01-30T15:30:05;8.50;99.90
12726;DHT22;6427;49.754;6.106;2023-01-30T15:32:32;8.40;99.90
12726;DHT22;6427;49.754;6.106;2023-01-30T15:35:00;8.40;99.90
12726;DHT22;6427;49.754;6.106;2023-01-30T15:42:56;8.30;99.90
12726;DHT22;6427;49.754;6.106;2023-01-30T15:48:20;8.20;99.90
12726;DHT22;6427;49.754;6.106;2023-01-30T15:50:54;8.40;99.90
12726;DHT22;6427;49.754;6.106;2023-01-30T15:53:17;8.30;99.90
12726;DHT22;6427;49.754;6.106;2023-01-30T15:55:46;8.10;99.90
12726;DHT22;6427;49.754;6.106;2023-01-30T15:58:15;8.10;99.90
12726;DHT22;6427;49.754;6.106;2023-01-30T16:00:53;8.00;99.90
12726;DHT22;6427;49.754;6.106;2023-01-30T16:03:22;8.00;99.90
12726;DHT22;6427;49.754;6.106;2023-01-30T16:05:49;7.90;99.90
12726;DHT22;6427;49.754;6.106;2023-01-30T16:08:25;7.90;99.90
12726;DHT22;6427;49.754;6.106;2023-01-30T16:10:52;8.00;99.90
12726;DHT22;6427;49.754;6.106;2023-01-30T16:13:21;8.00;99.90
12726;DHT22;6427;49.754;6.106;2023-01-30T16:16:12;8.20;99.90
12726;DHT22;6427;49.754;6.106;2023-01-30T16:18:44;8.10;99.90
12726;DHT22;6427;49.754;6.106;2023-01-30T16:21:08;7.90;99.90
12726;DHT22;6427;49.754;6.106;2023-01-30T16:23:41;7.90;99.90
12726;DHT22;6427;49.754;6.106;2023-01-30T16:26:11;7.70;99.90
12726;DHT22;6427;49.754;6.106;2023-01-30T16:28:35;7.60;99.90
12726;DHT22;6427;49.754;6.106;2023-01-30T16:31:05;7.50;99.90
12726;DHT22;6427;49.754;6.106;2023-01-30T16:33:31;7.50;99.90
12726;DHT22;6427;49.754;6.106;2023-01-30T16:35:59;7.50;99.90
12726;DHT22;6427;49.754;6.106;2023-01-30T16:38:37;7.40;99.90
12726;DHT22;6427;49.754;6.106;2023-01-30T16:41:04;7.40;99.90
12726;DHT22;6427;49.754;6.106;2023-01-30T16:43:32;7.30;99.90
12726;DHT22;6427;49.754;6.106;2023-01-30T16:47:04;7.30;99.90
12726;DHT22;6427;49.754;6.106;2023-01-30T16:48:45;7.50;99.90
12726;DHT22;6427;49.754;6.106;2023-01-30T16:51:20;7.50;99.90
12726;DHT22;6427;49.754;6.106;2023-01-30T16:53:49;7.60;99.90
12726;DHT22;6427;49.754;6.106;2023-01-30T16:56:14;7.60;99.90
12726;DHT22;6427;49.754;6.106;2023-01-30T16:58:39;7.40;99.90
12726;DHT22;6427;49.754;6.106;2023-01-30T17:01:07;7.30;99.90
12726;DHT22;6427;49.754;6.106;2023-01-30T17:03:35;7.30;99.90
12726;DHT22;6427;49.754;6.106;2023-01-30T17:06:03;7.40;99.90
12726;DHT22;6427;49.754;6.106;2023-01-30T17:10:59;7.20;99.90
12726;DHT22;6427;49.754;6.106;2023-01-30T17:13:32;7.20;99.90
12726;DHT22;6427;49.754;6.106;2023-01-30T17:18:45;7.00;99.90
12726;DHT22;6427;49.754;6.106;2023-01-30T17:21:13;7.00;99.90
12726;DHT22;6427;49.754;6.106;2023-01-30T17:23:48;7.00;99.90
12726;DHT22;6427;49.754;6.106;2023-01-30T17:26:12;7.00;99.90
12726;DHT22;6427;49.754;6.106;2023-01-30T17:28:40;6.90;99.90
12726;DHT22;6427;49.754;6.106;2023-01-30T17:31:10;6.80;99.90
12726;DHT22;6427;49.754;6.106;2023-01-30T17:33:37;6.80;99.90
12726;DHT22;6427;49.754;6.106;2023-01-30T17:36:05;6.70;99.90
12726;DHT22;6427;49.754;6.106;2023-01-30T17:38:33;6.50;99.90
12726;DHT22;6427;49.754;6.106;2023-01-30T17:41:02;6.50;99.90
12726;DHT22;6427;49.754;6.106;2023-01-30T17:43:30;6.40;99.90
12726;DHT22;6427;49.754;6.106;2023-01-30T17:45:57;6.40;99.90
12726;DHT22;6427;49.754;6.106;2023-01-30T17:48:25;6.30;99.90
12726;DHT22;6427;49.754;6.106;2023-01-30T17:50:53;6.20;99.90
12726;DHT22;6427;49.754;6.106;2023-01-30T17:53:21;6.20;99.90
12726;DHT22;6427;49.754;6.106;2023-01-30T17:55:48;6.10;99.90
12726;DHT22;6427;49.754;6.106;2023-01-30T17:58:16;6.10;99.90
12726;DHT22;6427;49.754;6.106;2023-01-30T18:00:43;6.00;99.90
12726;DHT22;6427;49.754;6.106;2023-01-30T18:03:11;6.00;99.90